createdAt,value
2022-09-12T00:00:32.124Z,97305.41
2022-09-12T00:03:01.560Z,97304.44
2022-09-12T00:05:31.163Z,97300.91
2022-09-12T00:07:59.281Z,97295.53
2022-09-12T00:10:27.380Z,97295.53
2022-09-12T00:12:55.459Z,97295.53
2022-09-12T00:15:23.488Z,97285.63
2022-09-12T00:17:51.559Z,97280.34
2022-09-12T00:20:21.196Z,97281.22
2022-09-12T00:22:49.278Z,97276.72
2022-09-12T00:25:17.461Z,97271.25
2022-09-12T00:27:45.580Z,97276.72
2022-09-12T00:30:13.908Z,97278.53
2022-09-12T00:32:41.991Z,97273.16
2022-09-12T00:35:10.124Z,97284.78
2022-09-12T00:37:39.614Z,97278.53
2022-09-12T00:40:08.894Z,97276.81
2022-09-12T00:42:37.073Z,97275.09
2022-09-12T00:45:06.501Z,97279.50
2022-09-12T00:47:34.569Z,97276.81
2022-09-12T00:50:05.128Z,97284.03
2022-09-12T00:52:35.324Z,97276.03
2022-09-12T00:55:07.284Z,97285.84
2022-09-12T00:57:37.108Z,97284.03
2022-09-12T01:00:12.220Z,97282.19
2022-09-12T01:02:40.324Z,97292.91
2022-09-12T01:05:09.460Z,97286.59
2022-09-12T01:07:40.003Z,97284.88
2022-09-12T01:10:10.764Z,97284.03
2022-09-12T01:12:40.196Z,97278.66
2022-09-12T01:15:08.779Z,97276.81
2022-09-12T01:17:43.749Z,97273.28
2022-09-12T01:20:38.062Z,97267.78
2022-09-12T01:23:35.000Z,97266.94
2022-09-12T01:26:13.383Z,97271.44
2022-09-12T01:28:53.389Z,97277.78
2022-09-12T01:31:23.591Z,97273.16
2022-09-12T01:33:59.865Z,97273.28
2022-09-12T01:36:41.999Z,97268.75
2022-09-12T01:39:15.441Z,97266.06
2022-09-12T01:41:46.440Z,97270.59
2022-09-12T01:44:17.823Z,97269.72
2022-09-12T01:46:49.178Z,97267.03
2022-09-12T01:49:19.188Z,97264.34
2022-09-12T01:51:52.600Z,97274.13
2022-09-12T01:54:22.239Z,97275.09
2022-09-12T01:56:50.995Z,97274.22
2022-09-12T01:59:20.257Z,97277.78
2022-09-12T02:01:53.151Z,97277.78
2022-09-12T02:04:22.195Z,97264.47
2022-09-12T02:06:51.316Z,97275.09
2022-09-12T02:09:20.840Z,97275.09
2022-09-12T02:11:49.272Z,97268.84
2022-09-12T02:14:19.255Z,97267.16
2022-09-12T02:16:50.021Z,97265.31
2022-09-12T02:19:19.818Z,97261.78
2022-09-12T02:21:49.829Z,97262.63
2022-09-12T02:24:17.884Z,97259.94
2022-09-12T02:26:48.895Z,97263.47
2022-09-12T02:29:17.015Z,97264.34
2022-09-12T02:31:46.576Z,97258.09
2022-09-12T02:34:23.642Z,97264.34
2022-09-12T02:36:54.718Z,97259.84
2022-09-12T02:39:22.857Z,97255.44
2022-09-12T02:41:51.765Z,97255.44
2022-09-12T02:44:20.031Z,97255.44
2022-09-12T02:46:48.965Z,97253.72
2022-09-12T02:49:18.532Z,97242.97
2022-09-12T02:51:46.744Z,97245.53
2022-09-12T02:54:15.027Z,97243.81
2022-09-12T02:56:43.812Z,97241.13
2022-09-12T02:59:14.028Z,97240.28
2022-09-12T03:01:50.727Z,97237.69
2022-09-12T03:04:29.005Z,97239.41
2022-09-12T03:07:03.017Z,97241.22
2022-09-12T03:09:34.427Z,97251.13
2022-09-12T03:12:12.951Z,97245.75
2022-09-12T03:15:02.083Z,97249.28
2022-09-12T03:17:34.036Z,97245.84
2022-09-12T03:20:05.512Z,97247.59
2022-09-12T03:22:35.481Z,97249.41
2022-09-12T03:25:07.144Z,97241.34
2022-09-12T03:27:36.592Z,97235.09
2022-09-12T03:30:05.355Z,97246.81
2022-09-12T03:32:43.992Z,97239.59
2022-09-12T03:35:13.668Z,97246.72
2022-09-12T03:37:41.852Z,97247.59
2022-09-12T03:40:11.819Z,97248.41
2022-09-12T03:42:40.101Z,97244.97
2022-09-12T03:45:09.383Z,97240.47
2022-09-12T03:47:37.569Z,97235.97
2022-09-12T03:50:06.616Z,97240.47
2022-09-12T03:52:36.250Z,97245.84
2022-09-12T03:55:04.752Z,97248.53
2022-09-12T03:57:32.926Z,97252.09
2022-09-12T04:00:02.114Z,97251.22
2022-09-12T04:02:41.005Z,97256.59
2022-09-12T04:05:09.753Z,97259.28
2022-09-12T04:07:39.285Z,97262.84
2022-09-12T04:10:09.606Z,97261.97
2022-09-12T04:12:39.566Z,97264.66
2022-09-12T04:15:08.934Z,97263.78
2022-09-12T04:17:36.995Z,97266.47
2022-09-12T04:20:05.716Z,97260.25
2022-09-12T04:22:33.800Z,97261.09
2022-09-12T04:25:03.347Z,97262.06
2022-09-12T04:27:31.415Z,97254.88
2022-09-12T04:29:59.617Z,97256.69
2022-09-12T04:32:27.667Z,97259.28
2022-09-12T04:34:55.763Z,97251.22
2022-09-12T04:37:24.532Z,97260.25
2022-09-12T04:39:56.107Z,97257.56
2022-09-12T04:42:25.699Z,97254.88
2022-09-12T04:44:53.780Z,97241.47
2022-09-12T04:47:21.852Z,97250.34
2022-09-12T04:49:51.179Z,97254.78
2022-09-12T04:52:19.229Z,97248.53
2022-09-12T04:54:47.329Z,97249.50
2022-09-12T04:57:15.367Z,97258.41
2022-09-12T04:59:44.884Z,97259.28
2022-09-12T05:02:12.991Z,97255.72
2022-09-12T05:04:41.062Z,97261.09
2022-09-12T05:07:09.136Z,97258.41
2022-09-12T05:09:37.245Z,97263.72
2022-09-12T05:12:06.094Z,97269.91
2022-09-12T05:14:34.408Z,97259.94
2022-09-12T05:17:04.086Z,97262.44
2022-09-12T05:19:32.407Z,97273.94
2022-09-12T05:22:00.700Z,97274.69
2022-09-12T05:24:28.901Z,97279.19
2022-09-12T05:26:56.985Z,97282.00
2022-09-12T05:29:25.704Z,97279.41
2022-09-12T05:31:53.861Z,97276.72
2022-09-12T05:34:23.418Z,97282.75
2022-09-12T05:36:51.509Z,97282.53
2022-09-12T05:39:19.748Z,97284.25
2022-09-12T05:41:47.891Z,97285.03
2022-09-12T05:44:16.129Z,97282.22
2022-09-12T05:46:45.188Z,97285.78
2022-09-12T05:49:14.616Z,97287.41
2022-09-12T05:51:45.470Z,97290.94
2022-09-12T05:54:15.036Z,97295.78
2022-09-12T05:56:44.069Z,97284.09
2022-09-12T05:59:13.475Z,97287.78
2022-09-12T06:01:41.837Z,97274.03
2022-09-12T06:04:12.648Z,97280.94
2022-09-12T06:06:43.491Z,97277.16
2022-09-12T06:09:13.093Z,97275.22
2022-09-12T06:11:41.928Z,97270.59
2022-09-12T06:14:13.536Z,97275.56
2022-09-12T06:16:41.810Z,97270.03
2022-09-12T06:19:14.458Z,97272.22
2022-09-12T06:21:42.552Z,97267.25
2022-09-12T06:24:12.219Z,97270.16
2022-09-12T06:26:40.275Z,97255.09
2022-09-12T06:29:08.634Z,97266.06
2022-09-12T06:31:37.352Z,97265.19
2022-09-12T06:34:06.512Z,97263.56
2022-09-12T06:36:36.296Z,97265.78
2022-09-12T06:39:05.531Z,97252.56
2022-09-12T06:41:35.055Z,97264.38
2022-09-12T06:44:03.596Z,97262.66
2022-09-12T06:46:32.196Z,97262.56
2022-09-12T06:49:00.827Z,97261.56
2022-09-12T06:51:29.131Z,97259.88
2022-09-12T06:53:57.474Z,97263.44
2022-09-12T06:56:26.583Z,97262.56
2022-09-12T06:58:57.164Z,97264.38
2022-09-12T07:01:26.256Z,97255.44
2022-09-12T07:03:55.876Z,97261.78
2022-09-12T07:06:26.216Z,97263.72
2022-09-12T07:08:54.263Z,97260.06
2022-09-12T07:11:23.419Z,97260.94
2022-09-12T07:13:54.118Z,97261.91
2022-09-12T07:16:23.895Z,97261.03
2022-09-12T07:18:52.478Z,97261.03
2022-09-12T07:21:20.602Z,97259.28
2022-09-12T07:23:49.213Z,97254.03
2022-09-12T07:26:17.467Z,97262.09
2022-09-12T07:28:45.769Z,97257.69
2022-09-12T07:31:15.037Z,97252.31
2022-09-12T07:33:44.828Z,97253.28
2022-09-12T07:36:13.765Z,97260.47
2022-09-12T07:38:41.948Z,97255.09
2022-09-12T07:41:13.676Z,97257.69
2022-09-12T07:43:51.244Z,97252.31
2022-09-12T07:46:19.713Z,97262.19
2022-09-12T07:48:52.451Z,97266.59
2022-09-12T07:51:20.538Z,97256.72
2022-09-12T07:53:49.027Z,97260.28
2022-09-12T07:56:17.635Z,97258.47
2022-09-12T07:58:45.740Z,97262.19
2022-09-12T08:01:14.861Z,97264.88
2022-09-12T08:03:43.117Z,97268.44
2022-09-12T08:06:14.081Z,97263.91
2022-09-12T08:08:42.184Z,97264.78
2022-09-12T08:11:11.202Z,97262.09
2022-09-12T08:13:39.716Z,97262.19
2022-09-12T08:16:08.690Z,97260.28
2022-09-12T08:18:37.141Z,97259.28
2022-09-12T08:21:07.344Z,97265.53
2022-09-12T08:23:36.839Z,97262.75
2022-09-12T08:26:06.591Z,97265.25
2022-09-12T08:28:35.428Z,97257.19
2022-09-12T08:31:03.693Z,97262.44
2022-09-12T08:33:33.563Z,97257.94
2022-09-12T08:36:06.276Z,97253.34
2022-09-12T08:38:34.459Z,97257.66
2022-09-12T08:41:06.996Z,97257.44
2022-09-12T08:43:46.937Z,97253.81
2022-09-12T08:46:17.624Z,97250.13
2022-09-12T08:48:46.113Z,97249.09
2022-09-12T08:51:15.144Z,97252.53
2022-09-12T08:53:43.208Z,97255.84
2022-09-12T08:56:12.706Z,97251.38
2022-09-12T08:58:41.940Z,97246.75
2022-09-12T09:01:11.891Z,97245.78
2022-09-12T09:04:08.932Z,97243.94
2022-09-12T09:06:46.048Z,97241.16
2022-09-12T09:09:16.548Z,97244.72
2022-09-12T09:11:54.596Z,97240.09
2022-09-12T09:14:51.494Z,97235.59
2022-09-12T09:17:21.872Z,97238.97
2022-09-12T09:19:52.088Z,97235.09
2022-09-12T09:22:24.818Z,97235.75
2022-09-12T09:24:54.801Z,97228.25
2022-09-12T09:27:40.431Z,97220.94
2022-09-12T09:30:14.104Z,97228.91
2022-09-12T09:32:42.164Z,97220.72
2022-09-12T09:35:15.841Z,97231.28
2022-09-12T09:37:44.522Z,97224.84
2022-09-12T09:40:19.079Z,97218.28
2022-09-12T09:42:54.229Z,97218.94
2022-09-12T09:45:24.194Z,97223.34
2022-09-12T09:47:52.853Z,97225.81
2022-09-12T09:50:20.959Z,97217.00
2022-09-12T09:52:50.556Z,97212.59
2022-09-12T09:55:20.855Z,97208.06
2022-09-12T09:57:52.321Z,97212.38
2022-09-12T10:00:32.030Z,97207.75
2022-09-12T10:03:05.398Z,97209.47
2022-09-12T10:05:34.803Z,97207.53
2022-09-12T10:08:03.301Z,97202.16
2022-09-12T10:10:31.384Z,97193.03
2022-09-12T10:13:10.218Z,97193.03
2022-09-12T10:15:38.729Z,97189.41
2022-09-12T10:18:07.027Z,97189.41
2022-09-12T10:20:36.303Z,97188.53
2022-09-12T10:23:09.487Z,97186.78
2022-09-12T10:25:37.961Z,97182.28
2022-09-12T10:28:05.996Z,97182.28
2022-09-12T10:30:35.512Z,97175.09
2022-09-12T10:33:07.389Z,97182.16
2022-09-12T10:35:44.853Z,97189.41
2022-09-12T10:38:15.281Z,97187.53
2022-09-12T10:40:44.932Z,97180.47
2022-09-12T10:43:17.986Z,97187.66
2022-09-12T10:45:47.590Z,97185.84
2022-09-12T10:48:28.681Z,97184.97
2022-09-12T10:50:56.993Z,97178.72
2022-09-12T10:53:28.906Z,97184.03
2022-09-12T10:56:07.808Z,97174.97
2022-09-12T10:58:57.708Z,97169.47
2022-09-12T11:01:40.386Z,97171.22
2022-09-12T11:04:25.592Z,97167.66
2022-09-12T11:07:00.201Z,97167.53
2022-09-12T11:09:30.269Z,97169.28
2022-09-12T11:12:03.456Z,97167.47
2022-09-12T11:14:57.774Z,97169.16
2022-09-12T11:17:33.020Z,97163.66
2022-09-12T11:20:12.045Z,97157.34
2022-09-12T11:23:00.024Z,97156.47
2022-09-12T11:25:31.063Z,97160.91
2022-09-12T11:28:16.079Z,97158.22
2022-09-12T11:30:50.757Z,97150.91
2022-09-12T11:33:30.154Z,97148.22
2022-09-12T11:35:58.885Z,97145.53
2022-09-12T11:38:53.435Z,97145.41
2022-09-12T11:41:24.743Z,97146.28
2022-09-12T11:43:55.776Z,97140.78
2022-09-12T11:46:24.945Z,97137.09
2022-09-12T11:48:56.481Z,97141.53
2022-09-12T11:51:26.861Z,97151.41
2022-09-12T11:54:05.192Z,97145.06
2022-09-12T11:56:33.298Z,97143.22
2022-09-12T11:59:04.222Z,97141.41
2022-09-12T12:01:40.499Z,97136.03
2022-09-12T12:04:13.938Z,97135.16
2022-09-12T12:06:49.080Z,97136.91
2022-09-12T12:09:17.769Z,97132.34
2022-09-12T12:11:48.742Z,97127.84
2022-09-12T12:14:18.394Z,97126.91
2022-09-12T12:16:46.521Z,97116.16
2022-09-12T12:19:32.826Z,97129.59
2022-09-12T12:22:09.927Z,97132.28
2022-09-12T12:24:54.467Z,97130.41
2022-09-12T12:27:26.436Z,97133.09
2022-09-12T12:29:54.611Z,97126.03
2022-09-12T12:32:23.877Z,97127.72
2022-09-12T12:35:02.268Z,97129.59
2022-09-12T12:38:00.309Z,97130.34
2022-09-12T12:40:29.500Z,97117.84
2022-09-12T12:43:05.521Z,97116.03
2022-09-12T12:46:10.380Z,97115.03
2022-09-12T12:49:11.189Z,97111.50
2022-09-12T12:51:56.629Z,97103.34
2022-09-12T12:54:32.917Z,97106.03
2022-09-12T12:57:05.522Z,97103.34
2022-09-12T12:59:33.636Z,97111.28
2022-09-12T13:02:01.854Z,97111.28
2022-09-12T13:04:31.185Z,97107.63
2022-09-12T13:07:07.701Z,97101.19
2022-09-12T13:09:39.538Z,97096.69
2022-09-12T13:12:09.224Z,97089.47
2022-09-12T13:14:52.919Z,97087.66
2022-09-12T13:17:29.345Z,97090.22
2022-09-12T13:20:26.690Z,97090.22
2022-09-12T13:22:55.950Z,97086.66
2022-09-12T13:25:27.179Z,97080.34
2022-09-12T13:28:16.564Z,97079.34
2022-09-12T13:30:45.684Z,97075.78
2022-09-12T13:33:19.884Z,97074.97
2022-09-12T13:35:55.899Z,97067.72
2022-09-12T13:38:27.831Z,97074.09
2022-09-12T13:41:04.212Z,97066.03
2022-09-12T13:43:38.115Z,97067.84
2022-09-12T13:46:06.271Z,97062.47
2022-09-12T13:48:34.521Z,97061.50
2022-09-12T13:51:03.069Z,97061.50
2022-09-12T13:53:36.008Z,97058.81
2022-09-12T13:56:04.905Z,97050.75
2022-09-12T13:58:33.725Z,97051.59
2022-09-12T14:01:03.299Z,97044.38
2022-09-12T14:03:50.087Z,97051.50
2022-09-12T14:06:19.006Z,97038.06
2022-09-12T14:08:48.764Z,97048.81
2022-09-12T14:11:26.004Z,97043.44
2022-09-12T14:13:55.232Z,97049.63
2022-09-12T14:16:23.498Z,97046.00
2022-09-12T14:18:52.567Z,97048.69
2022-09-12T14:21:31.213Z,97043.31
2022-09-12T14:24:00.839Z,97037.06
2022-09-12T14:26:32.461Z,97036.19
2022-09-12T14:29:00.627Z,97031.69
2022-09-12T14:31:31.088Z,97036.09
2022-09-12T14:34:10.060Z,97032.56
2022-09-12T14:36:41.044Z,97024.47
2022-09-12T14:39:18.315Z,97025.34
2022-09-12T14:41:47.047Z,97020.94
2022-09-12T14:44:19.286Z,97024.47
2022-09-12T14:46:47.360Z,97022.75
2022-09-12T14:49:17.693Z,97026.19
2022-09-12T14:51:51.440Z,97017.28
2022-09-12T14:54:42.592Z,97014.47
2022-09-12T14:57:34.297Z,97010.91
2022-09-12T15:00:20.274Z,97015.44
2022-09-12T15:02:48.552Z,97013.59
2022-09-12T15:05:18.969Z,97015.44
2022-09-12T15:07:55.808Z,97012.75
2022-09-12T15:10:27.700Z,97004.59
2022-09-12T15:13:10.897Z,97009.09
2022-09-12T15:15:39.933Z,97004.66
2022-09-12T15:18:08.276Z,97011.66
2022-09-12T15:20:37.370Z,97009.84
2022-09-12T15:23:06.069Z,97009.84
2022-09-12T15:25:35.476Z,97012.53
2022-09-12T15:28:06.607Z,97009.09
2022-09-12T15:30:34.779Z,97017.03
2022-09-12T15:33:02.852Z,97009.97
2022-09-12T15:35:30.913Z,97006.41
2022-09-12T15:37:58.992Z,97012.66
2022-09-12T15:40:27.085Z,97015.34
2022-09-12T15:42:56.582Z,97014.47
2022-09-12T15:45:27.367Z,97011.78
2022-09-12T15:47:55.515Z,97015.44
2022-09-12T15:50:23.595Z,97010.03
2022-09-12T15:52:51.724Z,97013.59
2022-09-12T15:55:20.936Z,97010.91
2022-09-12T15:57:49.077Z,97014.47
2022-09-12T16:00:19.062Z,97009.09
2022-09-12T16:02:48.970Z,97012.66
2022-09-12T16:05:18.172Z,97015.34
2022-09-12T16:07:46.251Z,97010.69
2022-09-12T16:10:17.592Z,97014.47
2022-09-12T16:12:46.173Z,97008.97
2022-09-12T16:15:15.169Z,97009.97
2022-09-12T16:17:44.667Z,97008.09
2022-09-12T16:20:12.804Z,97011.66
2022-09-12T16:22:40.885Z,97009.09
2022-09-12T16:25:09.565Z,97015.34
2022-09-12T16:27:37.864Z,97017.03
2022-09-12T16:30:06.942Z,97015.34
2022-09-12T16:32:35.272Z,97023.41
2022-09-12T16:35:05.151Z,97018.03
2022-09-12T16:37:34.563Z,97016.28
2022-09-12T16:40:02.824Z,97014.47
2022-09-12T16:42:31.117Z,97016.28
2022-09-12T16:44:59.139Z,97017.28
2022-09-12T16:47:27.309Z,97009.31
2022-09-12T16:49:55.343Z,97012.00
2022-09-12T16:52:24.827Z,97017.38
2022-09-12T16:54:52.870Z,97021.06
2022-09-12T16:57:21.060Z,97016.63
2022-09-12T16:59:49.099Z,97015.78
2022-09-12T17:02:17.293Z,97017.63
2022-09-12T17:04:45.384Z,97020.31
2022-09-12T17:07:13.551Z,97018.56
2022-09-12T17:09:46.252Z,97023.13
2022-09-12T17:12:16.056Z,97023.13
2022-09-12T17:14:44.239Z,97033.88
2022-09-12T17:17:12.311Z,97029.44
2022-09-12T17:19:40.403Z,97028.59
2022-09-12T17:22:08.467Z,97036.66
2022-09-12T17:24:36.548Z,97043.88
2022-09-12T17:27:06.385Z,97042.16
2022-09-12T17:29:35.876Z,97051.09
2022-09-12T17:32:04.155Z,97050.22
2022-09-12T17:34:32.307Z,97054.69
2022-09-12T17:37:00.365Z,97059.22
2022-09-12T17:39:28.530Z,97064.63
2022-09-12T17:41:57.813Z,97077.19
2022-09-12T17:44:27.324Z,97072.88
2022-09-12T17:46:55.399Z,97076.44
2022-09-12T17:49:23.482Z,97075.56
2022-09-12T17:51:52.184Z,97083.63
2022-09-12T17:54:20.907Z,97084.50
2022-09-12T17:56:51.315Z,97086.34
2022-09-12T17:59:20.781Z,97097.94
2022-09-12T18:02:08.013Z,97098.91
2022-09-12T18:04:36.444Z,97098.06
2022-09-12T18:07:05.080Z,97099.78
2022-09-12T18:09:33.189Z,97099.78
2022-09-12T18:12:01.344Z,97106.97
2022-09-12T18:14:29.412Z,97105.16
2022-09-12T18:17:00.245Z,97114.09
2022-09-12T18:19:28.543Z,97116.78
2022-09-12T18:21:56.592Z,97122.16
2022-09-12T18:24:24.852Z,97130.22
2022-09-12T18:26:52.984Z,97128.41
2022-09-12T18:29:21.061Z,97132.03
2022-09-12T18:31:49.163Z,97143.66
2022-09-12T18:34:18.883Z,97149.03
2022-09-12T18:36:47.564Z,97153.56
2022-09-12T18:39:15.670Z,97155.50
2022-09-12T18:41:43.898Z,97152.81
2022-09-12T18:44:12.813Z,97156.47
2022-09-12T18:46:40.921Z,97160.97
2022-09-12T18:49:09.523Z,97160.13
2022-09-12T18:51:41.729Z,97161.94
2022-09-12T18:54:13.062Z,97167.31
2022-09-12T18:56:43.580Z,97169.16
2022-09-12T18:59:12.906Z,97172.81
2022-09-12T19:01:41.165Z,97179.06
2022-09-12T19:04:09.904Z,97179.91
2022-09-12T19:06:40.291Z,97177.22
2022-09-12T19:09:09.120Z,97182.59
2022-09-12T19:11:38.197Z,97179.91
2022-09-12T19:14:06.509Z,97182.69
2022-09-12T19:16:34.800Z,97181.09
2022-09-12T19:19:03.182Z,97187.44
2022-09-12T19:21:34.422Z,97182.06
2022-09-12T19:24:05.346Z,97183.03
2022-09-12T19:26:33.504Z,97183.16
2022-09-12T19:29:03.026Z,97188.63
2022-09-12T19:31:31.329Z,97182.41
2022-09-12T19:34:00.999Z,97184.22
2022-09-12T19:36:46.367Z,97180.78
2022-09-12T19:39:17.219Z,97183.47
2022-09-12T19:41:45.480Z,97182.72
2022-09-12T19:44:13.576Z,97186.34
2022-09-12T19:46:41.806Z,97186.34
2022-09-12T19:49:11.328Z,97187.34
2022-09-12T19:51:39.400Z,97195.41
2022-09-12T19:54:07.898Z,97195.41
2022-09-12T19:56:37.436Z,97207.22
2022-09-12T19:59:05.563Z,97202.72
2022-09-12T20:01:34.797Z,97206.34
2022-09-12T20:04:03.451Z,97200.16
2022-09-12T20:06:31.519Z,97208.28
2022-09-12T20:09:00.011Z,97207.47
2022-09-12T20:11:28.075Z,97207.47
2022-09-12T20:13:57.513Z,97208.41
2022-09-12T20:16:28.502Z,97213.91
2022-09-12T20:18:57.452Z,97205.84
2022-09-12T20:21:31.271Z,97204.09
2022-09-12T20:24:03.383Z,97207.75
2022-09-12T20:26:31.657Z,97204.22
2022-09-12T20:29:01.339Z,97203.34
2022-09-12T20:31:30.335Z,97203.47
2022-09-12T20:33:58.593Z,97204.31
2022-09-12T20:36:26.857Z,97197.22
2022-09-12T20:38:56.770Z,97203.56
2022-09-12T20:41:25.227Z,97201.84
2022-09-12T20:43:53.412Z,97201.84
2022-09-12T20:46:23.058Z,97202.81
2022-09-12T20:48:51.297Z,97198.38
2022-09-12T20:51:19.472Z,97196.69
2022-09-12T20:53:47.578Z,97191.31
2022-09-12T20:56:15.709Z,97199.38
2022-09-12T20:58:44.751Z,97199.38
2022-09-12T21:01:13.229Z,97200.31
2022-09-12T21:03:43.118Z,97193.25
2022-09-12T21:06:12.570Z,97195.94
2022-09-12T21:08:40.652Z,97197.75
2022-09-12T21:11:08.796Z,97194.19
2022-09-12T21:13:36.882Z,97200.56
2022-09-12T21:16:06.010Z,97200.56
2022-09-12T21:18:34.388Z,97194.31
2022-09-12T21:21:04.083Z,97201.50
2022-09-12T21:23:32.220Z,97200.66
2022-09-12T21:26:00.440Z,97196.25
2022-09-12T21:28:28.548Z,97193.56
2022-09-12T21:30:56.665Z,97195.38
2022-09-12T21:33:24.991Z,97194.53
2022-09-12T21:35:53.028Z,97194.63
2022-09-12T21:38:22.501Z,97196.34
2022-09-12T21:40:50.571Z,97190.22
2022-09-12T21:43:18.649Z,97194.63
2022-09-12T21:45:46.711Z,97190.22
2022-09-12T21:48:14.807Z,97182.16
2022-09-12T21:50:42.863Z,97189.47
2022-09-12T21:53:10.940Z,97193.03
2022-09-12T21:55:40.371Z,97192.16
2022-09-12T21:58:08.452Z,97192.16
2022-09-12T22:00:36.493Z,97194.97
2022-09-12T22:03:04.923Z,97198.47
2022-09-12T22:05:33.651Z,97196.78
2022-09-12T22:08:02.009Z,97189.59
2022-09-12T22:10:30.071Z,97201.28
2022-09-12T22:12:59.527Z,97192.34
2022-09-12T22:15:42.806Z,97197.72
2022-09-12T22:18:11.541Z,97199.56
2022-09-12T22:20:39.601Z,97193.34
2022-09-12T22:23:25.361Z,97195.16
2022-09-12T22:25:55.059Z,97188.91
2022-09-12T22:28:25.240Z,97190.75
2022-09-12T22:30:54.769Z,97192.56
2022-09-12T22:33:23.056Z,97189.03
2022-09-12T22:35:51.135Z,97196.22
2022-09-12T22:38:19.157Z,97189.03
2022-09-12T22:40:47.232Z,97182.88
2022-09-12T22:43:15.504Z,97186.44
2022-09-12T22:45:45.025Z,97194.50
2022-09-12T22:48:13.050Z,97193.63
2022-09-12T22:50:41.228Z,97190.09
2022-09-12T22:53:09.248Z,97195.44
2022-09-12T22:55:37.396Z,97192.88
2022-09-12T22:58:05.413Z,97192.00
2022-09-12T23:00:33.714Z,97188.38
2022-09-12T23:03:03.237Z,97186.63
2022-09-12T23:05:31.561Z,97191.19
2022-09-12T23:07:59.589Z,97193.88
2022-09-12T23:10:27.681Z,97195.69
2022-09-12T23:12:56.031Z,97184.94
2022-09-12T23:15:24.174Z,97181.38
2022-09-12T23:17:52.195Z,97187.63
2022-09-12T23:20:21.716Z,97181.38
2022-09-12T23:22:49.937Z,97182.38
2022-09-12T23:25:18.236Z,97184.19
2022-09-12T23:27:48.302Z,97183.31
2022-09-12T23:30:20.180Z,97192.25
2022-09-12T23:32:49.492Z,97174.38
2022-09-12T23:35:19.737Z,97178.91
2022-09-12T23:37:49.224Z,97183.44
2022-09-12T23:40:17.845Z,97174.50
2022-09-12T23:42:45.928Z,97174.50
2022-09-12T23:45:13.980Z,97165.56
2022-09-12T23:47:42.049Z,97161.94
2022-09-12T23:50:10.391Z,97164.63
2022-09-12T23:52:38.475Z,97168.19
2022-09-12T23:55:09.050Z,97164.63
2022-09-12T23:57:37.127Z,97165.50
